Time;durP1;ratioP1;P1;durP2;ratioP2;P2;SDS_P1;SDS_P2;PMS_P1;PMS_P2;Temp;Humidity;BMP_temperature;BMP_pressure;BME280_temperature;BME280_humidity;BME280_pressure;Samples;Min_cycle;Max_cycle;Signal;HPM_P1;HPM_P2
2023/09/05 00:01:51;;;;;;;3.05;2.13;;;18.90;80.40;;;;;;5066064;28;20937;-66
2023/09/05 00:04:18;;;;;;;2.60;2.30;;;18.90;80.50;;;;;;5068797;28;20453;-66
2023/09/05 00:06:47;;;;;;;2.72;2.15;;;18.90;80.90;;;;;;5069566;28;20896;-66
2023/09/05 00:09:15;;;;;;;4.22;2.33;;;18.90;81.20;;;;;;5059976;28;20428;-66
2023/09/05 00:11:42;;;;;;;2.50;2.13;;;18.90;80.80;;;;;;5073425;28;20865;-66
2023/09/05 00:14:10;;;;;;;2.92;2.55;;;18.90;80.90;;;;;;5061805;28;20431;-66
2023/09/05 00:16:38;;;;;;;2.40;2.00;;;18.90;81.30;;;;;;5072168;28;20432;-66
2023/09/05 00:19:04;;;;;;;4.47;2.50;;;18.90;80.90;;;;;;5059661;28;20417;-66
2023/09/05 00:21:31;;;;;;;3.37;2.20;;;18.90;81.10;;;;;;5070411;28;20423;-65
2023/09/05 00:24:27;;;;;;;2.90;2.00;;;18.80;81.00;;;;;;5072467;28;20432;-66
2023/09/05 00:26:55;;;;;;;2.78;2.30;;;18.80;80.90;;;;;;5061050;28;20441;-64
2023/09/05 00:29:21;;;;;;;3.30;2.40;;;18.80;81.10;;;;;;5060821;28;20935;-65
2023/09/05 00:31:48;;;;;;;2.75;2.10;;;18.80;81.00;;;;;;5065613;28;20796;-65
2023/09/05 00:34:15;;;;;;;2.47;2.22;;;18.80;81.20;;;;;;5069166;28;20430;-66
2023/09/05 00:36:42;;;;;;;2.40;2.00;;;18.80;81.70;;;;;;5079678;28;20414;-64
2023/09/05 00:39:10;;;;;;;4.20;2.60;;;18.80;81.60;;;;;;5073540;28;20415;-66
2023/09/05 00:41:38;;;;;;;4.05;2.40;;;18.70;81.90;;;;;;5084600;28;20418;-66
2023/09/05 00:44:05;;;;;;;2.50;2.20;;;18.70;81.40;;;;;;5060800;28;20455;-66
2023/09/05 00:46:33;;;;;;;3.20;2.13;;;18.70;81.80;;;;;;5074284;28;20516;-65
2023/09/05 00:49:02;;;;;;;4.13;2.10;;;18.70;81.40;;;;;;5069146;28;20524;-65
2023/09/05 00:51:31;;;;;;;3.42;2.10;;;18.80;81.60;;;;;;5072803;28;20879;-66
2023/09/05 00:53:58;;;;;;;3.20;2.30;;;18.70;81.70;;;;;;5060373;28;20509;-65
2023/09/05 00:56:25;;;;;;;2.80;2.42;;;18.70;81.40;;;;;;5073944;28;20410;-66
2023/09/05 00:58:53;;;;;;;2.67;2.00;;;18.70;82.40;;;;;;5082049;28;20431;-66
2023/09/05 01:01:20;;;;;;;2.70;2.40;;;18.70;82.20;;;;;;5066369;28;20433;-64
2023/09/05 01:03:46;;;;;;;2.25;1.80;;;18.70;82.80;;;;;;5067938;28;20425;-65
2023/09/05 01:06:26;;;;;;;2.40;2.20;;;18.60;82.20;;;;;;5079116;28;20885;-65
2023/09/05 01:09:01;;;;;;;2.50;2.13;;;18.60;81.90;;;;;;5076748;28;20434;-66
2023/09/05 01:11:28;;;;;;;2.80;2.10;;;18.60;82.30;;;;;;5074893;28;20410;-65
2023/09/05 01:13:56;;;;;;;2.08;1.80;;;18.60;82.10;;;;;;5079306;28;20913;-64
2023/09/05 01:16:23;;;;;;;3.20;2.13;;;18.60;82.20;;;;;;5064133;28;20435;-63
2023/09/05 01:18:50;;;;;;;2.70;2.40;;;18.60;81.70;;;;;;5063817;28;20434;-66
2023/09/05 01:21:24;;;;;;;2.83;1.98;;;18.60;82.10;;;;;;5071225;28;20834;-66
2023/09/05 01:23:58;;;;;;;3.08;2.03;;;18.60;82.50;;;;;;5064628;28;20420;-66
2023/09/05 01:26:26;;;;;;;2.80;2.10;;;18.60;81.90;;;;;;5064453;28;20417;-66
2023/09/05 01:28:53;;;;;;;2.50;2.00;;;18.60;82.80;;;;;;5062499;28;20471;-65
2023/09/05 01:31:21;;;;;;;2.40;2.00;;;18.60;81.60;;;;;;5075364;28;20875;-65
2023/09/05 01:33:47;;;;;;;2.50;1.92;;;18.60;82.40;;;;;;5075713;28;20440;-66
2023/09/05 01:36:15;;;;;;;2.70;2.13;;;18.60;81.50;;;;;;5072416;28;20420;-66
2023/09/05 01:38:42;;;;;;;2.67;1.90;;;18.60;81.10;;;;;;5076420;28;20421;-66
2023/09/05 01:41:09;;;;;;;3.00;2.10;;;18.70;80.70;;;;;;5079602;28;20929;-66
2023/09/05 01:43:37;;;;;;;3.00;1.93;;;18.70;80.10;;;;;;5071413;28;20441;-66
2023/09/05 01:46:04;;;;;;;3.30;2.30;;;18.70;80.50;;;;;;5071157;28;20436;-66
2023/09/05 01:48:31;;;;;;;3.60;2.08;;;18.70;79.70;;;;;;5058812;28;20520;-65
2023/09/05 01:50:58;;;;;;;2.58;2.10;;;18.70;79.00;;;;;;5077248;28;20789;-66
2023/09/05 01:53:24;;;;;;;3.10;2.30;;;18.80;79.30;;;;;;5069562;28;20421;-66
2023/09/05 01:55:51;;;;;;;2.65;1.90;;;18.80;78.90;;;;;;5064327;28;20425;-66
2023/09/05 01:58:18;;;;;;;3.03;2.20;;;18.90;77.80;;;;;;5067458;28;20516;-66
2023/09/05 02:00:46;;;;;;;2.40;1.70;;;18.90;77.50;;;;;;5066178;28;20454;-65
2023/09/05 02:03:13;;;;;;;2.35;1.90;;;19.00;76.90;;;;;;5071310;28;20423;-66
2023/09/05 02:05:40;;;;;;;4.10;2.00;;;19.10;76.40;;;;;;5075710;28;20414;-67
2023/09/05 02:08:06;;;;;;;2.20;1.80;;;19.10;76.60;;;;;;5071376;28;20504;-66
2023/09/05 02:10:33;;;;;;;2.90;2.10;;;19.10;75.80;;;;;;5075779;28;20430;-65
2023/09/05 02:13:00;;;;;;;2.20;2.00;;;19.10;75.80;;;;;;5065200;28;20433;-65
2023/09/05 02:15:27;;;;;;;2.60;1.80;;;19.10;75.00;;;;;;5069750;28;20422;-65
2023/09/05 02:17:55;;;;;;;2.30;1.90;;;19.20;75.30;;;;;;5065640;28;20918;-65
2023/09/05 02:20:23;;;;;;;2.50;1.80;;;19.20;75.00;;;;;;5063682;28;20428;-66
2023/09/05 02:22:49;;;;;;;1.80;1.70;;;19.20;75.20;;;;;;5064960;28;20422;-66
2023/09/05 02:25:16;;;;;;;2.50;1.80;;;19.20;75.20;;;;;;5066791;28;20410;-66
2023/09/05 02:27:43;;;;;;;2.58;1.85;;;19.10;75.70;;;;;;5079866;28;20427;-66
2023/09/05 02:30:10;;;;;;;3.13;1.63;;;19.10;75.30;;;;;;5067233;28;20415;-66
2023/09/05 02:32:37;;;;;;;2.00;1.80;;;19.10;76.70;;;;;;5078786;28;20432;-66
2023/09/05 02:35:06;;;;;;;2.58;1.70;;;19.00;76.30;;;;;;5071157;28;20705;-66
2023/09/05 02:37:32;;;;;;;2.15;1.80;;;19.00;76.30;;;;;;5063914;28;20437;-65
2023/09/05 02:39:59;;;;;;;1.83;1.65;;;19.00;76.70;;;;;;5079793;28;20888;-64
2023/09/05 02:42:26;;;;;;;2.70;1.80;;;18.90;76.90;;;;;;5062865;28;20423;-66
2023/09/05 02:44:53;;;;;;;2.27;1.70;;;18.90;76.90;;;;;;5075648;28;20417;-65
2023/09/05 02:47:21;;;;;;;2.00;1.80;;;18.90;77.10;;;;;;5066577;28;20496;-65
2023/09/05 02:49:48;;;;;;;2.70;1.60;;;18.90;77.20;;;;;;5065677;28;20430;-65
2023/09/05 02:52:18;;;;;;;2.47;2.10;;;18.90;77.20;;;;;;5071786;28;20432;-65
2023/09/05 02:54:44;;;;;;;2.95;1.92;;;18.80;76.50;;;;;;5059691;28;20441;-65
2023/09/05 02:57:11;;;;;;;2.30;1.90;;;18.90;76.80;;;;;;5068559;28;20454;-66
2023/09/05 02:59:38;;;;;;;3.10;2.00;;;18.80;76.50;;;;;;5074828;28;20408;-64
2023/09/05 03:02:04;;;;;;;2.10;1.70;;;18.80;76.70;;;;;;5068664;28;20411;-65
2023/09/05 03:04:32;;;;;;;2.60;2.00;;;18.80;77.40;;;;;;5057274;28;20432;-66
2023/09/05 03:07:01;;;;;;;2.10;1.80;;;18.80;77.10;;;;;;5073690;28;20905;-64
2023/09/05 03:09:29;;;;;;;3.10;2.00;;;18.80;77.70;;;;;;5075830;28;20413;-66
2023/09/05 03:11:56;;;;;;;2.38;1.77;;;18.70;77.40;;;;;;5077095;28;20887;-66
2023/09/05 03:14:22;;;;;;;3.20;1.97;;;18.70;77.70;;;;;;5079163;28;20425;-67
2023/09/05 03:16:49;;;;;;;2.90;2.10;;;18.70;77.60;;;;;;5076289;28;20415;-67
2023/09/05 03:19:16;;;;;;;3.15;2.05;;;18.70;77.70;;;;;;5058130;28;20431;-65
2023/09/05 03:21:43;;;;;;;2.40;2.00;;;18.70;79.00;;;;;;5074488;28;20447;-66
2023/09/05 03:24:09;;;;;;;2.28;2.00;;;18.70;77.80;;;;;;5063713;28;20529;-66
2023/09/05 03:26:38;;;;;;;2.63;2.05;;;18.70;78.20;;;;;;5069308;28;20437;-66
2023/09/05 03:29:04;;;;;;;2.17;1.90;;;18.60;78.10;;;;;;5069367;28;20431;-66
2023/09/05 03:31:32;;;;;;;2.80;2.00;;;18.70;79.60;;;;;;5065774;28;20438;-66
2023/09/05 03:33:59;;;;;;;2.43;1.80;;;18.60;78.10;;;;;;5067787;28;20433;-66
2023/09/05 03:36:26;;;;;;;2.75;2.05;;;18.60;78.40;;;;;;5065421;28;20449;-65
2023/09/05 03:38:53;;;;;;;2.83;1.90;;;18.60;78.50;;;;;;5060314;28;20428;-67
2023/09/05 03:41:20;;;;;;;2.20;2.00;;;18.60;78.70;;;;;;5063179;28;20800;-66
2023/09/05 03:43:48;;;;;;;2.83;2.00;;;18.50;78.90;;;;;;5055859;28;20424;-66
2023/09/05 03:46:15;;;;;;;2.70;2.00;;;18.50;77.90;;;;;;5079928;28;20421;-66
2023/09/05 03:48:41;;;;;;;2.95;2.00;;;18.50;78.10;;;;;;5059672;28;20525;-66
2023/09/05 03:51:08;;;;;;;3.17;2.10;;;18.50;78.90;;;;;;5071608;28;20497;-66
2023/09/05 03:53:35;;;;;;;2.50;1.90;;;18.50;78.40;;;;;;5059315;28;20426;-66
2023/09/05 03:56:02;;;;;;;2.10;1.90;;;18.60;78.30;;;;;;5061450;28;20431;-66
2023/09/05 03:58:29;;;;;;;2.45;1.83;;;18.60;78.10;;;;;;5077962;28;20414;-65
2023/09/05 04:00:57;;;;;;;2.60;1.90;;;18.60;78.30;;;;;;5059979;28;20512;-66
2023/09/05 04:03:24;;;;;;;2.60;1.92;;;18.50;78.00;;;;;;5067182;28;20429;-67
2023/09/05 04:05:50;;;;;;;2.60;2.00;;;18.50;78.40;;;;;;5062584;28;20438;-67
2023/09/05 04:08:17;;;;;;;3.00;2.00;;;18.50;78.30;;;;;;5061405;28;20929;-66
2023/09/05 04:10:44;;;;;;;2.90;2.00;;;18.50;79.00;;;;;;5065510;28;20425;-66
2023/09/05 04:13:10;;;;;;;2.50;2.25;;;18.50;78.50;;;;;;5076443;28;20425;-67
2023/09/05 04:15:37;;;;;;;2.90;2.30;;;18.40;78.50;;;;;;5060816;28;20805;-65
2023/09/05 04:18:06;;;;;;;2.80;2.10;;;18.40;78.20;;;;;;5062461;28;20435;-65
2023/09/05 04:20:34;;;;;;;3.00;2.20;;;18.40;79.90;;;;;;5073341;28;20430;-66
2023/09/05 04:23:00;;;;;;;4.18;2.40;;;18.40;79.20;;;;;;5067122;28;20523;-66
2023/09/05 04:25:27;;;;;;;3.80;2.33;;;18.40;79.70;;;;;;5058120;28;20919;-65
2023/09/05 04:27:54;;;;;;;2.70;2.10;;;18.40;79.40;;;;;;5064603;28;20429;-66
2023/09/05 04:30:21;;;;;;;2.40;2.20;;;18.30;79.30;;;;;;5066374;28;20424;-65
2023/09/05 04:32:47;;;;;;;3.72;2.35;;;18.30;79.30;;;;;;5065481;28;20434;-65
2023/09/05 04:35:16;;;;;;;2.38;2.17;;;18.30;79.80;;;;;;5052398;28;20429;-64
2023/09/05 04:37:42;;;;;;;2.90;2.40;;;18.30;80.30;;;;;;5065611;28;20446;-65
2023/09/05 04:40:10;;;;;;;3.20;2.40;;;18.20;79.70;;;;;;5078760;28;20445;-65
2023/09/05 04:42:38;;;;;;;2.60;2.10;;;18.30;79.90;;;;;;5065849;28;20419;-65
2023/09/05 04:45:06;;;;;;;3.50;2.17;;;18.30;79.80;;;;;;5065655;28;20436;-66
2023/09/05 04:47:33;;;;;;;2.55;2.00;;;18.30;79.60;;;;;;5065285;28;20439;-66
2023/09/05 04:50:00;;;;;;;3.30;2.10;;;18.30;79.80;;;;;;5071913;28;20522;-66
2023/09/05 04:52:30;;;;;;;2.40;1.80;;;18.20;80.30;;;;;;5060155;28;20429;-68
2023/09/05 04:54:58;;;;;;;4.60;2.30;;;18.20;80.00;;;;;;5056691;28;20436;-67
2023/09/05 04:57:25;;;;;;;3.40;2.10;;;18.20;78.90;;;;;;5059741;28;20439;-66
2023/09/05 04:59:57;;;;;;;5.07;2.50;;;18.20;79.40;;;;;;5100783;22;20438;-68
2023/09/05 05:02:24;;;;;;;4.10;2.45;;;18.20;78.60;;;;;;5085590;28;20429;-68
2023/09/05 05:04:51;;;;;;;4.45;2.55;;;18.30;79.40;;;;;;5087134;28;20502;-70
2023/09/05 05:07:18;;;;;;;4.32;2.78;;;18.30;79.00;;;;;;5087521;28;20928;-72
2023/09/05 05:09:47;;;;;;;5.22;2.92;;;18.30;81.50;;;;;;5084314;28;20430;-68
2023/09/05 05:12:14;;;;;;;5.70;3.30;;;18.30;84.20;;;;;;5086133;28;20406;-67
2023/09/05 05:14:41;;;;;;;7.22;3.65;;;18.30;81.90;;;;;;5087866;28;20406;-70
2023/09/05 05:17:07;;;;;;;6.05;3.60;;;18.30;84.90;;;;;;5086830;28;20889;-69
2023/09/05 05:19:35;;;;;;;7.40;3.70;;;18.20;84.50;;;;;;5086678;28;20433;-67
2023/09/05 05:22:01;;;;;;;7.93;4.10;;;18.20;82.80;;;;;;5090509;28;20854;-68
2023/09/05 05:24:28;;;;;;;6.40;3.17;;;18.20;83.50;;;;;;5085137;28;20433;-70
2023/09/05 05:26:56;;;;;;;6.10;3.10;;;18.20;84.60;;;;;;5089754;28;20425;-68
2023/09/05 05:29:23;;;;;;;5.18;2.53;;;18.20;85.30;;;;;;5091213;28;20445;-68
2023/09/05 05:31:50;;;;;;;4.37;2.80;;;18.20;83.50;;;;;;5090601;28;20433;-70
2023/09/05 05:34:16;;;;;;;4.10;2.90;;;18.20;87.20;;;;;;5085002;28;20430;-71
2023/09/05 05:36:43;;;;;;;4.00;2.67;;;18.20;83.70;;;;;;5089316;28;20425;-68
2023/09/05 05:39:12;;;;;;;4.00;2.28;;;18.20;84.00;;;;;;5089803;28;20433;-68
2023/09/05 05:41:38;;;;;;;5.03;2.50;;;18.20;84.30;;;;;;5091349;28;20413;-70
2023/09/05 05:44:07;;;;;;;3.72;2.78;;;18.30;84.10;;;;;;5089825;28;20430;-70
2023/09/05 05:46:33;;;;;;;3.17;2.30;;;18.30;84.50;;;;;;5091364;28;20440;-70
2023/09/05 05:49:02;;;;;;;4.60;2.42;;;18.30;83.10;;;;;;5089054;28;20434;-69
2023/09/05 05:51:30;;;;;;;3.80;2.70;;;18.30;83.80;;;;;;5087126;28;20915;-70
2023/09/05 05:53:57;;;;;;;4.97;3.10;;;18.30;82.60;;;;;;5095600;28;20426;-71
2023/09/05 05:56:23;;;;;;;5.50;2.75;;;18.40;83.90;;;;;;5079907;28;20434;-69
2023/09/05 05:58:50;;;;;;;4.55;2.80;;;18.40;82.80;;;;;;5092128;28;20425;-70
2023/09/05 06:01:19;;;;;;;4.15;2.90;;;18.40;84.10;;;;;;5096190;28;20749;-69
2023/09/05 06:03:46;;;;;;;5.30;2.90;;;18.50;82.60;;;;;;5084901;28;20426;-71
2023/09/05 06:06:12;;;;;;;4.55;3.13;;;18.50;82.80;;;;;;5090466;28;20418;-68
2023/09/05 06:08:40;;;;;;;5.00;2.80;;;18.50;81.90;;;;;;5084627;28;20777;-71
2023/09/05 06:11:07;;;;;;;3.70;2.75;;;18.60;81.30;;;;;;5087487;28;20444;-70
2023/09/05 06:13:34;;;;;;;4.43;2.83;;;18.70;81.80;;;;;;5086325;28;20508;-70
2023/09/05 06:16:00;;;;;;;3.08;2.50;;;18.70;80.90;;;;;;5078795;28;20423;-70
2023/09/05 06:18:28;;;;;;;5.45;2.97;;;18.70;80.30;;;;;;5085035;28;20432;-69
2023/09/05 06:20:55;;;;;;;3.60;2.30;;;18.80;80.20;;;;;;5088196;28;20796;-68
2023/09/05 06:23:22;;;;;;;3.67;2.53;;;18.90;80.70;;;;;;5101556;28;20438;-67
2023/09/05 06:25:48;;;;;;;3.72;2.60;;;18.90;80.60;;;;;;5108777;28;20426;-67
2023/09/05 06:28:15;;;;;;;2.60;2.20;;;19.00;79.20;;;;;;5092070;28;20430;-70
2023/09/05 06:30:42;;;;;;;3.20;2.15;;;19.10;80.40;;;;;;5084943;28;20920;-68
2023/09/05 06:33:09;;;;;;;3.63;2.20;;;19.10;79.20;;;;;;5080515;28;20457;-69
2023/09/05 06:35:37;;;;;;;2.40;2.20;;;19.20;79.10;;;;;;5088450;28;20493;-70
2023/09/05 06:38:05;;;;;;;3.20;2.20;;;19.20;78.20;;;;;;5082677;28;20525;-67
2023/09/05 06:40:32;;;;;;;2.90;2.20;;;19.20;79.00;;;;;;5085454;28;20797;-72
2023/09/05 06:42:59;;;;;;;2.70;2.10;;;19.40;78.00;;;;;;5086895;28;20434;-69
2023/09/05 06:45:26;;;;;;;2.87;2.30;;;19.40;77.80;;;;;;5088851;28;20426;-68
2023/09/05 06:47:53;;;;;;;3.63;2.30;;;19.50;77.60;;;;;;5088984;28;20438;-70
2023/09/05 06:50:19;;;;;;;3.03;2.30;;;19.60;77.20;;;;;;5086356;28;20553;-69
2023/09/05 06:52:48;;;;;;;3.00;2.70;;;19.60;76.90;;;;;;5089841;28;20784;-68
2023/09/05 06:55:15;;;;;;;2.20;1.83;;;19.70;76.90;;;;;;5089383;28;20872;-70
2023/09/05 06:57:41;;;;;;;3.90;2.40;;;19.80;77.10;;;;;;5088968;28;20444;-70
2023/09/05 07:00:10;;;;;;;3.50;2.35;;;19.90;76.30;;;;;;5088387;28;20445;-68
2023/09/05 07:02:37;;;;;;;2.50;2.00;;;20.00;75.80;;;;;;5085053;28;20483;-69
2023/09/05 07:05:04;;;;;;;3.17;2.20;;;20.10;75.70;;;;;;5079473;28;20761;-70
2023/09/05 07:07:31;;;;;;;3.30;2.00;;;20.20;74.80;;;;;;5085653;28;20425;-70
2023/09/05 07:09:59;;;;;;;2.10;1.90;;;20.30;74.10;;;;;;5087682;28;20461;-69
2023/09/05 07:12:26;;;;;;;2.75;1.80;;;20.40;74.20;;;;;;5088799;28;20417;-70
2023/09/05 07:14:53;;;;;;;3.00;2.10;;;20.40;73.90;;;;;;5084644;28;20599;-70
2023/09/05 07:17:20;;;;;;;2.10;1.90;;;20.60;74.60;;;;;;5084440;28;20452;-69
2023/09/05 07:19:46;;;;;;;3.95;2.10;;;20.60;72.40;;;;;;5086038;28;20437;-71
2023/09/05 07:22:13;;;;;;;2.60;1.97;;;20.70;72.30;;;;;;5081818;28;20501;-68
2023/09/05 07:24:40;;;;;;;2.40;2.10;;;20.90;73.10;;;;;;5090129;28;20422;-70
2023/09/05 07:27:08;;;;;;;2.50;2.00;;;21.00;72.40;;;;;;5089257;28;20429;-69
2023/09/05 07:29:34;;;;;;;2.55;2.05;;;21.10;71.60;;;;;;5089547;28;20793;-69
2023/09/05 07:32:02;;;;;;;3.00;2.20;;;21.20;70.70;;;;;;5086983;28;20430;-68
2023/09/05 07:34:29;;;;;;;2.03;1.83;;;21.30;70.10;;;;;;5091078;28;20428;-71
2023/09/05 07:36:56;;;;;;;2.88;2.10;;;21.30;69.40;;;;;;5093758;28;20429;-69
2023/09/05 07:39:24;;;;;;;2.60;2.30;;;21.30;68.60;;;;;;5087971;28;20829;-69
2023/09/05 07:41:51;;;;;;;2.80;2.10;;;21.40;69.60;;;;;;5091576;28;20446;-68
2023/09/05 07:44:19;;;;;;;2.80;2.10;;;21.50;68.20;;;;;;5090302;28;20425;-69
2023/09/05 07:46:46;;;;;;;3.50;2.00;;;21.60;68.00;;;;;;5088796;28;20406;-69
2023/09/05 07:49:13;;;;;;;2.47;1.90;;;21.80;66.30;;;;;;5089883;28;20479;-69
2023/09/05 07:51:39;;;;;;;3.30;2.20;;;21.90;66.90;;;;;;5084700;28;20430;-69
2023/09/05 07:54:10;;;;;;;2.78;2.00;;;22.00;66.00;;;;;;5089932;28;20437;-69
2023/09/05 07:56:37;;;;;;;4.90;2.50;;;22.10;64.60;;;;;;5098082;28;20429;-69
2023/09/05 07:59:05;;;;;;;2.83;2.10;;;22.20;64.60;;;;;;5098482;28;20425;-69
2023/09/05 08:01:34;;;;;;;2.67;2.10;;;22.20;63.20;;;;;;5082160;28;20425;-69
2023/09/05 08:04:00;;;;;;;2.70;2.10;;;22.30;64.50;;;;;;5082873;28;20417;-71
2023/09/05 08:06:28;;;;;;;3.00;2.47;;;22.40;62.80;;;;;;5085304;28;20457;-70
2023/09/05 08:08:55;;;;;;;2.70;2.30;;;22.40;63.40;;;;;;5088537;28;20421;-69
2023/09/05 08:11:22;;;;;;;3.70;1.80;;;22.60;63.10;;;;;;5087111;28;20429;-71
2023/09/05 08:13:49;;;;;;;2.85;2.30;;;22.60;62.60;;;;;;5088584;28;20418;-71
2023/09/05 08:16:16;;;;;;;2.40;2.00;;;22.70;61.90;;;;;;5085221;28;20454;-71
2023/09/05 08:18:44;;;;;;;2.45;1.88;;;22.80;62.80;;;;;;5086498;28;20470;-71
2023/09/05 08:21:10;;;;;;;2.58;1.70;;;22.80;61.40;;;;;;5087402;28;20437;-69
2023/09/05 08:23:37;;;;;;;3.40;2.00;;;22.90;61.60;;;;;;5086281;28;20447;-71
2023/09/05 08:26:04;;;;;;;2.33;2.10;;;23.10;61.20;;;;;;5087232;28;20919;-71
2023/09/05 08:28:33;;;;;;;2.30;2.10;;;23.10;60.10;;;;;;5090193;28;20966;-72
2023/09/05 08:31:01;;;;;;;2.00;1.80;;;23.20;60.40;;;;;;5087895;28;20430;-70
2023/09/05 08:33:28;;;;;;;2.15;1.80;;;23.20;60.60;;;;;;5084466;28;20436;-69
2023/09/05 08:35:56;;;;;;;2.35;1.85;;;23.20;60.40;;;;;;5084687;28;20453;-71
2023/09/05 08:38:23;;;;;;;2.28;1.90;;;23.30;61.20;;;;;;5088371;28;20406;-71
2023/09/05 08:40:50;;;;;;;2.22;1.90;;;23.50;59.10;;;;;;5090273;28;20471;-69
2023/09/05 08:43:18;;;;;;;4.00;1.90;;;23.60;60.20;;;;;;5088075;28;20425;-70
2023/09/05 08:45:45;;;;;;;2.53;1.80;;;23.70;59.10;;;;;;5087990;28;20939;-69
2023/09/05 08:48:12;;;;;;;3.20;2.20;;;23.90;58.30;;;;;;5082824;28;20431;-71
2023/09/05 08:50:41;;;;;;;2.50;1.80;;;24.00;56.70;;;;;;5086422;28;20406;-70
2023/09/05 08:53:11;;;;;;;2.25;1.85;;;24.10;56.80;;;;;;5086019;28;20428;-74
2023/09/05 08:55:41;;;;;;;2.30;1.80;;;24.20;56.20;;;;;;5091299;28;20550;-73
2023/09/05 08:58:12;;;;;;;2.40;1.92;;;24.30;56.90;;;;;;5085992;28;20466;-72
2023/09/05 09:00:39;;;;;;;2.15;1.83;;;24.40;53.90;;;;;;5081575;28;20653;-73
2023/09/05 09:03:06;;;;;;;2.20;1.80;;;24.30;56.50;;;;;;5076664;28;20407;-74
2023/09/05 09:05:33;;;;;;;3.10;1.60;;;24.40;54.70;;;;;;5086084;28;20516;-72
2023/09/05 09:08:00;;;;;;;1.83;1.70;;;24.30;54.60;;;;;;5081528;28;20441;-74
2023/09/05 09:10:28;;;;;;;2.22;1.85;;;24.40;55.10;;;;;;5085430;28;20453;-73
2023/09/05 09:12:56;;;;;;;1.95;1.70;;;24.60;54.90;;;;;;5085043;28;20428;-72
2023/09/05 09:15:26;;;;;;;2.65;1.98;;;24.70;54.80;;;;;;5079890;28;20904;-74
2023/09/05 09:17:53;;;;;;;1.90;1.70;;;24.90;53.50;;;;;;5079286;28;20903;-74
2023/09/05 09:20:23;;;;;;;2.17;1.80;;;25.00;52.60;;;;;;5081279;28;20471;-71
2023/09/05 09:22:50;;;;;;;2.90;1.70;;;25.10;51.80;;;;;;5080709;28;20932;-71
2023/09/05 09:25:20;;;;;;;2.92;2.00;;;25.20;52.90;;;;;;5078033;28;20433;-69
2023/09/05 09:27:53;;;;;;;2.03;1.80;;;25.40;50.60;;;;;;5083696;28;20861;-72
2023/09/05 09:30:23;;;;;;;2.72;1.80;;;25.40;50.30;;;;;;5080880;28;20461;-72
2023/09/05 09:32:51;;;;;;;3.40;2.08;;;25.40;50.60;;;;;;5080828;28;20782;-71
2023/09/05 09:35:18;;;;;;;2.80;1.80;;;25.60;50.90;;;;;;5084936;28;20410;-68
2023/09/05 09:37:46;;;;;;;2.15;1.95;;;25.80;49.90;;;;;;5077378;28;20491;-74
2023/09/05 09:40:16;;;;;;;3.20;2.00;;;26.00;49.60;;;;;;5084166;28;20429;-70
2023/09/05 09:42:44;;;;;;;2.20;2.00;;;26.10;48.40;;;;;;5084608;28;20836;-70
2023/09/05 09:45:12;;;;;;;3.08;2.78;;;26.00;48.30;;;;;;5081135;28;20456;-69
2023/09/05 09:47:47;;;;;;;2.47;2.20;;;25.90;48.40;;;;;;5080789;28;20430;-70
2023/09/05 09:50:14;;;;;;;4.18;2.40;;;25.90;49.00;;;;;;5092531;28;20410;-71
2023/09/05 09:52:46;;;;;;;3.05;2.00;;;26.00;49.60;;;;;;5090120;28;20518;-69
2023/09/05 09:55:14;;;;;;;2.70;1.95;;;26.10;48.90;;;;;;5090823;28;20426;-72
2023/09/05 09:57:46;;;;;;;1.80;1.60;;;26.30;48.70;;;;;;5083458;28;20430;-71
2023/09/05 10:00:18;;;;;;;2.53;1.60;;;26.40;48.10;;;;;;5086811;28;20442;-71
2023/09/05 10:02:47;;;;;;;1.70;1.60;;;26.50;48.30;;;;;;5087777;28;20463;-70
2023/09/05 10:05:16;;;;;;;3.53;1.53;;;26.70;48.30;;;;;;5090221;28;20461;-72
2023/09/05 10:07:43;;;;;;;2.50;1.60;;;26.90;47.20;;;;;;5089602;28;20479;-71
2023/09/05 10:10:15;;;;;;;2.70;1.58;;;27.10;46.50;;;;;;5089873;28;20487;-70
2023/09/05 10:12:45;;;;;;;1.70;1.50;;;27.30;46.00;;;;;;5099584;28;20429;-69
2023/09/05 10:15:12;;;;;;;2.77;1.60;;;27.50;45.70;;;;;;5097431;28;20464;-72
2023/09/05 10:17:42;;;;;;;1.90;1.50;;;27.70;45.70;;;;;;5084138;28;20483;-71
2023/09/05 10:20:19;;;;;;;1.70;1.60;;;27.80;45.30;;;;;;5082834;28;20423;-70
2023/09/05 10:22:46;;;;;;;2.00;1.40;;;27.90;44.30;;;;;;5088140;28;20434;-71
2023/09/05 10:25:15;;;;;;;3.05;1.60;;;27.90;44.30;;;;;;5088247;28;20425;-71
2023/09/05 10:27:42;;;;;;;3.40;1.70;;;27.90;44.50;;;;;;5090096;28;20430;-70
2023/09/05 10:30:11;;;;;;;2.22;1.70;;;27.80;44.60;;;;;;5090367;28;20425;-72
2023/09/05 10:32:44;;;;;;;2.00;1.43;;;27.80;44.40;;;;;;5091856;28;20436;-71
2023/09/05 10:35:16;;;;;;;1.58;1.40;;;27.70;44.20;;;;;;5087249;28;20430;-73
2023/09/05 10:37:51;;;;;;;3.00;1.50;;;27.50;44.50;;;;;;5104648;28;20432;-73
2023/09/05 10:40:18;;;;;;;2.20;1.67;;;27.50;44.90;;;;;;5103711;28;20445;-72
2023/09/05 10:42:50;;;;;;;2.03;1.50;;;27.50;44.80;;;;;;5096229;28;20459;-72
2023/09/05 10:45:19;;;;;;;2.08;1.88;;;27.60;44.90;;;;;;5092827;28;20425;-72
2023/09/05 10:47:49;;;;;;;1.73;1.63;;;27.70;45.10;;;;;;5089091;28;20431;-71
2023/09/05 10:50:19;;;;;;;2.33;1.40;;;27.90;44.90;;;;;;5084846;28;20413;-73
2023/09/05 10:52:49;;;;;;;1.63;1.52;;;28.30;43.80;;;;;;5088568;28;20987;-67
2023/09/05 10:55:39;;;;;;;1.60;1.50;;;28.50;43.10;;;;;;5084822;28;20462;-66
2023/09/05 11:00:48;;;;;;;2.65;1.80;;;28.40;43.00;;;;;;5075216;28;20469;-71
2023/09/05 11:03:16;;;;;;;2.00;1.40;;;28.40;43.40;;;;;;5083129;28;20546;-72
2023/09/05 11:05:45;;;;;;;1.90;1.45;;;28.50;43.00;;;;;;5083909;28;20536;-71
2023/09/05 11:08:22;;;;;;;1.40;1.30;;;28.60;42.30;;;;;;5081713;28;20515;-71
2023/09/05 11:10:53;;;;;;;3.35;1.50;;;28.60;42.40;;;;;;5081749;28;20498;-71
2023/09/05 11:13:20;;;;;;;1.50;1.30;;;28.80;42.60;;;;;;5082787;28;20425;-71
2023/09/05 11:15:46;;;;;;;2.53;1.50;;;29.00;41.70;;;;;;5083907;28;20418;-71
2023/09/05 11:18:17;;;;;;;1.50;1.40;;;29.00;41.90;;;;;;5077727;28;20430;-71
2023/09/05 11:20:46;;;;;;;4.30;1.30;;;29.20;42.00;;;;;;5080402;28;20563;-71
2023/09/05 11:23:14;;;;;;;2.00;1.48;;;29.50;41.00;;;;;;5079899;28;20430;-71
2023/09/05 11:25:43;;;;;;;2.60;1.40;;;29.70;40.30;;;;;;5083137;28;20460;-71
2023/09/05 11:28:10;;;;;;;1.77;1.20;;;29.70;39.60;;;;;;5082319;28;20429;-71
2023/09/05 11:30:37;;;;;;;1.60;1.15;;;29.60;40.20;;;;;;5083997;28;20487;-71
2023/09/05 11:33:08;;;;;;;1.70;1.10;;;29.60;40.30;;;;;;5084553;28;20764;-71
2023/09/05 11:35:38;;;;;;;1.10;1.00;;;29.80;39.50;;;;;;5069986;28;20445;-71
2023/09/05 11:38:05;;;;;;;1.90;1.30;;;30.00;39.30;;;;;;5083252;28;20418;-71
2023/09/05 11:40:31;;;;;;;2.03;1.27;;;30.00;39.40;;;;;;5080281;28;20429;-74
2023/09/05 11:43:06;;;;;;;1.95;1.55;;;30.00;38.50;;;;;;5079157;28;20890;-70
2023/09/05 11:45:34;;;;;;;1.60;1.10;;;30.00;38.90;;;;;;5082483;28;20453;-71
2023/09/05 11:48:02;;;;;;;2.20;1.50;;;30.00;38.70;;;;;;5081250;28;20436;-71
2023/09/05 11:50:31;;;;;;;1.70;1.00;;;30.00;39.30;;;;;;5082849;28;20444;-71
2023/09/05 11:53:00;;;;;;;1.85;1.13;;;29.90;38.50;;;;;;5076355;28;20429;-72
2023/09/05 11:55:27;;;;;;;2.00;1.30;;;30.10;39.00;;;;;;5082996;28;20417;-71
2023/09/05 11:57:54;;;;;;;1.60;1.10;;;30.20;38.90;;;;;;5081795;28;20946;-71
2023/09/05 12:00:22;;;;;;;1.60;1.20;;;30.50;38.60;;;;;;5078071;28;20426;-73
2023/09/05 12:02:49;;;;;;;1.30;1.00;;;30.50;38.00;;;;;;5073214;28;20508;-70
2023/09/05 12:05:19;;;;;;;1.50;1.30;;;30.50;38.30;;;;;;5081378;28;20425;-74
2023/09/05 12:07:49;;;;;;;3.20;1.20;;;30.70;38.30;;;;;;5079722;28;20426;-71
2023/09/05 12:10:17;;;;;;;1.20;1.10;;;30.80;38.50;;;;;;5079696;28;20566;-72
2023/09/05 12:12:54;;;;;;;1.80;1.30;;;31.10;38.50;;;;;;5075035;28;20426;-72
2023/09/05 12:15:29;;;;;;;3.22;1.90;;;31.40;37.30;;;;;;5082888;28;20430;-72
2023/09/05 12:17:56;;;;;;;1.70;1.30;;;31.40;37.10;;;;;;5083124;28;20478;-72
2023/09/05 12:20:23;;;;;;;2.20;1.00;;;31.50;36.80;;;;;;5082545;28;20552;-72
2023/09/05 12:22:50;;;;;;;3.50;1.30;;;31.40;36.50;;;;;;5082902;28;20524;-72
2023/09/05 12:25:19;;;;;;;1.67;1.38;;;31.50;36.80;;;;;;5082139;28;20434;-73
2023/09/05 12:27:48;;;;;;;1.15;0.95;;;31.50;36.90;;;;;;5083650;28;20429;-72
2023/09/05 12:30:29;;;;;;;1.80;0.90;;;31.70;36.60;;;;;;5086561;28;20880;-73
2023/09/05 12:32:57;;;;;;;2.22;0.90;;;31.70;36.20;;;;;;5086961;28;20412;-72
2023/09/05 12:35:25;;;;;;;1.60;0.90;;;31.70;36.20;;;;;;5086215;28;21707;-72
2023/09/05 12:37:52;;;;;;;1.00;0.90;;;31.70;35.70;;;;;;5086055;28;20457;-74
2023/09/05 12:40:21;;;;;;;1.20;0.98;;;31.60;35.70;;;;;;5086923;28;20443;-72
2023/09/05 12:42:49;;;;;;;1.15;1.05;;;31.60;35.80;;;;;;5085789;28;20433;-71
2023/09/05 12:45:17;;;;;;;1.33;0.90;;;31.70;35.30;;;;;;5086034;28;20417;-73
2023/09/05 12:47:45;;;;;;;1.85;0.90;;;31.80;35.80;;;;;;5085864;28;20433;-72
2023/09/05 12:50:15;;;;;;;1.70;1.00;;;32.00;35.60;;;;;;5086580;28;20745;-73
2023/09/05 12:52:43;;;;;;;1.80;0.98;;;32.30;35.20;;;;;;5083086;28;20916;-72
2023/09/05 12:55:11;;;;;;;1.33;0.90;;;32.40;35.30;;;;;;5085759;28;20501;-74